VIR8Y KLAX-EGLL
Flight info
| Callsign | VIR8Y |
|---|---|
| Flight time | N/A |
| Altitude | 35000 |
| Route | ORCKA5 LAS DCT BCE DCT MBW DCT DPR DCT GABOV/N0498F370 DCT KEMSA DCT JELCO/M085F370 DCT LIBOR DCT 63N050W/M084F390 63N040W 62N030W 60N020W DCT GOMUP/N0482F390 DCT GINGA DCT KELLY L10 WAL UY53 NUGRA |
| Aircraft | A35K/H-SDE2E3GHIJ3J4J5LM1ORWXY/LB1D1 |
Departure
| Time | N/A |
|---|---|
| Airport | Los Angeles International Airport (KLAX) |
Arrival
| Time | 2026-05-05 09:01 |
|---|---|
| Airport | London Heathrow Airport (EGLL) |
| Time | Latitude | Longitude | Altitude | Speed | Heading |
|---|---|---|---|---|---|
| 2026-05-05 08:57 | 51.47693 | -0.64467 | 2115 ft | 159 kts | 85° |
| 2026-05-05 08:58 | 51.47698 | -0.62701 | 1900 ft | 155 kts | 85° |
| 2026-05-05 08:58 | 51.47702 | -0.61046 | 1681 ft | 142 kts | 85° |
| 2026-05-05 08:58 | 51.47705 | -0.59529 | 1485 ft | 129 kts | 84° |
| 2026-05-05 08:58 | 51.47713 | -0.58106 | 1317 ft | 127 kts | 85° |
| 2026-05-05 08:59 | 51.47718 | -0.56703 | 1137 ft | 126 kts | 85° |
| 2026-05-05 08:59 | 51.47723 | -0.55308 | 964 ft | 125 kts | 85° |
| 2026-05-05 08:59 | 51.47729 | -0.53895 | 786 ft | 127 kts | 84° |
| 2026-05-05 08:59 | 51.47731 | -0.52500 | 600 ft | 124 kts | 84° |
| 2026-05-05 09:00 | 51.47740 | -0.51092 | 458 ft | 128 kts | 85° |
| 2026-05-05 09:00 | 51.47748 | -0.49672 | 273 ft | 127 kts | 88° |
| 2026-05-05 09:00 | 51.47749 | -0.48257 | 124 ft | 127 kts | 85° |
| 2026-05-05 09:00 | 51.47756 | -0.46922 | 98 ft | 102 kts | 90° |
| 2026-05-05 09:01 | 51.47759 | -0.46225 | 95 ft | 20 kts | 90° |
| 2026-05-05 09:01 | 51.47760 | -0.45926 | 94 ft | 41 kts | 89° |
| 2026-05-05 09:01 | 51.47753 | -0.45549 | 94 ft | 21 kts | 112° |
| 2026-05-05 09:01 | 51.47690 | -0.45477 | 95 ft | 1 kts | 167° |
| 2026-05-05 09:02 | 51.47631 | -0.45469 | 93 ft | 22 kts | 178° |
| 2026-05-05 09:02 | 51.47528 | -0.45488 | 97 ft | 7 kts | 221° |
| 2026-05-05 09:02 | 51.47509 | -0.45587 | 96 ft | 12 kts | 268° |
| 2026-05-05 09:02 | 51.47512 | -0.45750 | 97 ft | 17 kts | 276° |
| 2026-05-05 09:03 | 51.47517 | -0.45959 | 92 ft | 21 kts | 269° |
| 2026-05-05 09:03 | 51.47517 | -0.46196 | 92 ft | 22 kts | 270° |
| 2026-05-05 09:03 | 51.47516 | -0.46356 | 92 ft | 10 kts | 270° |
| 2026-05-05 09:03 | 51.47516 | -0.46496 | 92 ft | 15 kts | 270° |
| 2026-05-05 09:04 | 51.47515 | -0.46676 | 95 ft | 14 kts | 267° |
| 2026-05-05 09:04 | 51.47475 | -0.46750 | 95 ft | 9 kts | 185° |
| 2026-05-05 09:04 | 51.47397 | -0.46731 | 93 ft | 14 kts | 169° |
| 2026-05-05 09:04 | 51.47290 | -0.46726 | 92 ft | 12 kts | 180° |
| 2026-05-05 09:05 | 51.47243 | -0.46686 | 97 ft | 7 kts | 109° |
| 2026-05-05 09:05 | 51.47239 | -0.46575 | 92 ft | 13 kts | 90° |
| 2026-05-05 09:05 | 51.47250 | -0.46463 | 95 ft | 7 kts | 52° |
| 2026-05-05 09:05 | 51.47296 | -0.46423 | 96 ft | 5 kts | 25° |
| 2026-05-05 09:06 | 51.47312 | -0.46411 | 96 ft | 5 kts | 25° |